createdAt,value
2022-09-30T00:05:04.360Z,2.70
2022-09-30T00:10:12.661Z,3.60
2022-09-30T00:15:20.731Z,3.70
2022-09-30T00:20:28.179Z,4.07
2022-09-30T00:25:35.807Z,3.43
2022-09-30T00:30:44.401Z,3.17
2022-09-30T00:35:52.071Z,4.70
2022-09-30T00:41:00.192Z,3.00
2022-09-30T00:46:08.973Z,3.57
2022-09-30T00:51:16.460Z,3.00
2022-09-30T00:56:26.992Z,2.97
2022-09-30T01:01:35.190Z,2.90
2022-09-30T01:06:43.164Z,3.50
2022-09-30T01:11:51.149Z,4.00
2022-09-30T01:16:59.875Z,2.60
2022-09-30T01:22:08.349Z,2.63
2022-09-30T01:27:18.579Z,2.40
2022-09-30T01:32:28.744Z,2.77
2022-09-30T01:37:39.037Z,3.83
2022-09-30T01:42:50.473Z,2.50
2022-09-30T01:48:01.025Z,2.43
2022-09-30T01:53:11.291Z,3.00
2022-09-30T01:58:20.470Z,2.23
2022-09-30T02:03:32.202Z,2.60
2022-09-30T02:08:42.450Z,3.30
2022-09-30T02:13:50.779Z,2.13
2022-09-30T02:19:01.292Z,5.70
2022-09-30T02:24:12.274Z,2.67
2022-09-30T02:29:22.869Z,4.73
2022-09-30T02:34:33.434Z,2.87
2022-09-30T02:39:43.759Z,4.47
2022-09-30T02:44:53.463Z,4.07
2022-09-30T02:50:03.436Z,6.37
2022-09-30T02:55:13.511Z,4.13
2022-09-30T03:00:21.150Z,3.27
2022-09-30T03:05:30.054Z,2.83
2022-09-30T03:10:37.581Z,6.80
2022-09-30T03:15:46.137Z,3.60
2022-09-30T03:20:56.535Z,5.13
2022-09-30T03:26:07.010Z,10.13
2022-09-30T03:31:17.382Z,8.00
2022-09-30T03:36:25.901Z,8.73
2022-09-30T03:41:36.311Z,3.63
2022-09-30T03:46:45.775Z,3.30
2022-09-30T03:51:54.536Z,7.40
2022-09-30T03:57:03.358Z,6.63
2022-09-30T04:02:12.914Z,7.07
2022-09-30T04:07:21.012Z,3.30
2022-09-30T04:12:28.340Z,2.93
2022-09-30T04:17:35.710Z,3.10
2022-09-30T04:22:43.218Z,3.07
2022-09-30T04:27:51.131Z,3.30
2022-09-30T04:32:59.345Z,2.90
2022-09-30T04:38:07.826Z,3.67
2022-09-30T04:43:15.335Z,8.07
2022-09-30T04:48:23.071Z,4.90
2022-09-30T04:53:30.695Z,7.10
2022-09-30T04:58:38.364Z,2.00
2022-09-30T05:03:46.154Z,3.00
2022-09-30T05:08:53.667Z,3.13
2022-09-30T05:14:01.222Z,3.20
2022-09-30T05:19:08.641Z,2.90
2022-09-30T05:24:16.417Z,3.00
2022-09-30T05:29:24.026Z,3.07
2022-09-30T05:34:32.120Z,3.30
2022-09-30T05:39:39.982Z,3.27
2022-09-30T05:44:47.531Z,3.27
2022-09-30T05:49:56.277Z,3.43
2022-09-30T05:55:04.324Z,4.00
2022-09-30T06:00:12.907Z,3.00
2022-09-30T06:05:20.666Z,3.30
2022-09-30T06:10:29.007Z,3.47
2022-09-30T06:15:38.390Z,6.53
2022-09-30T06:20:45.883Z,3.80
2022-09-30T06:25:54.656Z,8.83
2022-09-30T06:31:05.067Z,7.30
2022-09-30T06:36:12.857Z,5.67
2022-09-30T06:41:20.487Z,9.20
2022-09-30T06:46:31.334Z,5.83
2022-09-30T06:51:37.772Z,9.67
2022-09-30T06:56:45.897Z,9.73
2022-09-30T07:01:53.728Z,11.80
2022-09-30T07:07:01.376Z,6.10
2022-09-30T07:12:10.196Z,8.63
2022-09-30T07:17:17.847Z,7.30
2022-09-30T07:22:27.074Z,13.53
2022-09-30T07:27:35.718Z,7.90
2022-09-30T07:32:43.835Z,10.40
2022-09-30T07:37:51.808Z,5.00
2022-09-30T07:43:00.438Z,14.50
2022-09-30T07:48:09.501Z,7.33
2022-09-30T07:53:19.250Z,10.40
2022-09-30T07:58:26.727Z,14.47
2022-09-30T08:03:35.871Z,6.60
2022-09-30T08:08:45.844Z,8.30
2022-09-30T08:13:55.157Z,5.07
2022-09-30T08:19:03.969Z,4.67
2022-09-30T08:24:12.295Z,4.40
2022-09-30T08:29:35.687Z,4.40
2022-09-30T08:34:30.805Z,4.00
2022-09-30T08:39:40.728Z,3.77
2022-09-30T08:44:50.664Z,4.37
2022-09-30T08:49:59.171Z,4.70
2022-09-30T08:55:09.030Z,4.80
2022-09-30T09:00:19.952Z,4.90
2022-09-30T09:05:29.644Z,4.00
2022-09-30T09:10:39.891Z,4.07
2022-09-30T09:15:50.627Z,3.90
2022-09-30T09:21:00.418Z,4.27
2022-09-30T09:26:08.017Z,4.47
2022-09-30T09:31:18.113Z,4.07
2022-09-30T09:36:27.041Z,4.00
2022-09-30T09:41:37.760Z,3.70
2022-09-30T09:46:48.328Z,3.40
2022-09-30T09:51:59.115Z,4.30
2022-09-30T09:57:09.831Z,3.97
2022-09-30T10:02:20.177Z,3.80
2022-09-30T10:07:29.515Z,4.20
2022-09-30T10:12:37.460Z,3.97
2022-09-30T10:17:45.290Z,4.10
2022-09-30T10:22:56.150Z,4.23
2022-09-30T10:28:06.646Z,3.80
2022-09-30T10:33:17.002Z,3.60
2022-09-30T10:38:28.841Z,3.57
2022-09-30T10:43:39.191Z,4.23
2022-09-30T10:48:49.650Z,3.70
2022-09-30T10:53:57.840Z,3.90
2022-09-30T10:59:08.521Z,3.50
2022-09-30T11:04:17.181Z,3.67
2022-09-30T11:09:27.948Z,3.47
2022-09-30T11:14:38.252Z,3.13
2022-09-30T11:19:49.145Z,3.20
2022-09-30T11:24:58.144Z,3.27
2022-09-30T11:30:08.327Z,3.07
2022-09-30T11:35:18.528Z,2.93
2022-09-30T11:40:29.675Z,3.20
2022-09-30T11:45:41.049Z,3.00
2022-09-30T11:50:51.933Z,2.83
2022-09-30T11:56:02.769Z,2.70
2022-09-30T12:01:11.690Z,2.80
2022-09-30T12:06:23.248Z,2.83
2022-09-30T12:11:32.454Z,3.07
2022-09-30T12:16:41.853Z,2.70
2022-09-30T12:21:53.764Z,2.50
2022-09-30T12:27:03.176Z,2.17
2022-09-30T12:32:13.962Z,2.37
2022-09-30T12:37:24.650Z,2.37
2022-09-30T12:42:35.449Z,2.33
2022-09-30T12:47:46.582Z,2.40
2022-09-30T12:52:54.176Z,2.83
2022-09-30T12:58:03.725Z,2.60
2022-09-30T13:03:16.678Z,2.60
2022-09-30T13:08:27.358Z,2.50
2022-09-30T13:13:37.054Z,2.70
2022-09-30T13:18:46.033Z,2.40
2022-09-30T13:23:56.537Z,2.17
2022-09-30T13:29:04.544Z,2.30
2022-09-30T13:34:15.760Z,2.60
2022-09-30T13:39:22.352Z,2.13
2022-09-30T13:44:33.050Z,2.03
2022-09-30T13:49:40.637Z,1.90
2022-09-30T13:54:50.072Z,2.10
2022-09-30T14:00:00.552Z,2.10
2022-09-30T14:05:12.371Z,1.77
2022-09-30T14:10:21.032Z,2.17
2022-09-30T14:15:30.192Z,2.63
2022-09-30T14:20:39.030Z,2.60
2022-09-30T14:25:49.577Z,2.50
2022-09-30T14:31:01.700Z,2.50
2022-09-30T14:36:13.228Z,2.30
2022-09-30T14:41:23.557Z,2.37
2022-09-30T14:46:34.374Z,3.00
2022-09-30T14:51:45.541Z,2.60
2022-09-30T14:56:55.098Z,2.67
2022-09-30T15:02:06.031Z,2.60
2022-09-30T15:07:14.787Z,2.50
2022-09-30T15:12:25.749Z,2.80
2022-09-30T15:17:36.542Z,2.80
2022-09-30T15:22:44.814Z,3.30
2022-09-30T15:27:53.526Z,2.90
2022-09-30T15:33:04.256Z,2.80
2022-09-30T15:38:15.118Z,3.30
2022-09-30T15:43:25.480Z,3.60
2022-09-30T15:48:36.505Z,3.07
2022-09-30T15:53:44.476Z,3.40
2022-09-30T15:58:54.766Z,4.20
2022-09-30T16:04:06.391Z,3.70
2022-09-30T16:09:17.247Z,3.37
2022-09-30T16:14:28.379Z,3.20
2022-09-30T16:19:37.078Z,4.00
2022-09-30T16:24:45.868Z,4.23
2022-09-30T16:29:53.696Z,3.50
2022-09-30T16:35:01.420Z,3.40
2022-09-30T16:40:11.958Z,4.10
2022-09-30T16:45:20.777Z,3.50
2022-09-30T16:50:31.162Z,3.97
2022-09-30T16:55:39.354Z,4.20
2022-09-30T17:00:47.305Z,4.50
2022-09-30T17:05:56.777Z,6.73
2022-09-30T17:11:05.160Z,7.00
2022-09-30T17:16:14.415Z,8.07
2022-09-30T17:21:25.681Z,5.63
2022-09-30T17:26:34.073Z,5.10
2022-09-30T17:31:48.242Z,6.00
2022-09-30T17:36:57.213Z,7.23
2022-09-30T17:42:07.026Z,5.17
2022-09-30T17:47:14.727Z,5.17
2022-09-30T17:52:24.640Z,4.87
2022-09-30T17:57:37.154Z,4.37
2022-09-30T18:02:45.480Z,3.60
2022-09-30T18:07:56.221Z,2.90
2022-09-30T18:13:05.665Z,2.50
2022-09-30T18:18:13.495Z,2.40
2022-09-30T18:23:21.308Z,2.80
2022-09-30T18:28:29.634Z,2.47
2022-09-30T18:33:37.660Z,2.30
2022-09-30T18:38:45.263Z,2.23
2022-09-30T18:43:55.479Z,8.13
2022-09-30T18:49:03.433Z,3.30
2022-09-30T18:54:11.773Z,3.20
2022-09-30T18:59:22.044Z,14.20
2022-09-30T19:04:28.967Z,7.00
2022-09-30T19:09:36.731Z,14.10
2022-09-30T19:14:44.996Z,14.33
2022-09-30T19:19:52.410Z,11.00
2022-09-30T19:25:00.539Z,15.73
2022-09-30T19:30:10.366Z,14.07
2022-09-30T19:35:21.651Z,14.17
2022-09-30T19:40:30.025Z,17.00
2022-09-30T19:45:37.734Z,9.30
2022-09-30T19:50:46.739Z,8.57
2022-09-30T19:55:58.382Z,7.53
2022-09-30T20:01:07.782Z,12.67
2022-09-30T20:06:18.883Z,10.33
2022-09-30T20:11:28.066Z,8.53
2022-09-30T20:16:35.982Z,11.50
2022-09-30T20:21:44.577Z,16.83
2022-09-30T20:26:53.775Z,10.77
2022-09-30T20:32:03.730Z,9.07
2022-09-30T20:37:11.851Z,9.23
2022-09-30T20:42:20.206Z,11.00
2022-09-30T20:47:29.025Z,9.13
2022-09-30T20:52:37.886Z,11.67
2022-09-30T20:57:46.729Z,13.83
2022-09-30T21:02:55.053Z,9.13
2022-09-30T21:08:03.010Z,9.57
2022-09-30T21:13:13.137Z,18.43
2022-09-30T21:18:22.337Z,11.40
2022-09-30T21:23:33.761Z,12.33
2022-09-30T21:28:44.454Z,10.87
2022-09-30T21:33:54.184Z,9.70
2022-09-30T21:39:03.516Z,10.50
2022-09-30T21:44:11.377Z,16.70
2022-09-30T21:49:22.467Z,10.43
2022-09-30T21:54:30.152Z,14.47
2022-09-30T21:59:39.967Z,15.60
2022-09-30T22:04:47.729Z,11.70
2022-09-30T22:09:56.086Z,12.87
2022-09-30T22:15:04.729Z,14.13
2022-09-30T22:20:13.989Z,10.70
2022-09-30T22:25:23.093Z,10.70
2022-09-30T22:30:31.136Z,9.93
2022-09-30T22:35:40.990Z,10.57
2022-09-30T22:40:48.841Z,9.73
2022-09-30T22:46:00.584Z,12.37
2022-09-30T22:51:10.544Z,21.60
2022-09-30T22:56:20.051Z,17.43
2022-09-30T23:01:29.567Z,9.53
2022-09-30T23:06:37.428Z,16.03
2022-09-30T23:11:46.609Z,19.37
2022-09-30T23:16:54.170Z,12.83
2022-09-30T23:22:02.589Z,9.97
2022-09-30T23:27:10.250Z,10.33
2022-09-30T23:32:18.778Z,16.47
2022-09-30T23:37:26.567Z,11.40
2022-09-30T23:42:35.260Z,12.43
2022-09-30T23:47:44.396Z,22.43
2022-09-30T23:52:52.096Z,10.53
2022-09-30T23:57:59.830Z,8.67
